createdAt,value
2023-05-05T00:02:50.612Z,8.80
2023-05-05T00:07:54.233Z,8.80
2023-05-05T00:12:57.221Z,9.20
2023-05-05T00:18:00.257Z,9.80
2023-05-05T00:23:04.166Z,9.40
2023-05-05T00:28:07.116Z,8.70
2023-05-05T00:33:10.193Z,9.40
2023-05-05T00:38:13.171Z,9.20
2023-05-05T00:43:16.203Z,9.20
2023-05-05T00:48:19.624Z,8.70
2023-05-05T00:53:23.276Z,8.30
2023-05-05T01:03:29.131Z,9.10
2023-05-05T01:09:20.147Z,10.10
2023-05-05T01:14:53.068Z,10.50
2023-05-05T01:20:21.671Z,10.40
2023-05-05T01:26:12.450Z,10.40
2023-05-05T01:31:32.047Z,9.70
2023-05-05T01:36:42.372Z,10.60
2023-05-05T01:41:54.339Z,10.00
2023-05-05T01:46:59.656Z,9.50
2023-05-05T01:52:05.107Z,9.60
2023-05-05T01:57:10.185Z,10.60
2023-05-05T02:02:15.755Z,10.10
2023-05-05T02:07:21.177Z,9.20
2023-05-05T02:12:24.170Z,9.70
2023-05-05T02:17:27.829Z,9.00
2023-05-05T02:27:36.218Z,10.20
2023-05-05T02:32:53.961Z,9.90
2023-05-05T02:38:02.877Z,9.70
2023-05-05T02:43:10.031Z,9.20
2023-05-05T02:48:13.299Z,8.50
2023-05-05T02:53:16.648Z,9.50
2023-05-05T02:58:33.355Z,9.60
2023-05-05T03:03:47.568Z,9.60
2023-05-05T03:08:56.905Z,9.70
2023-05-05T03:14:13.371Z,10.30
2023-05-05T03:19:20.406Z,10.40
2023-05-05T03:24:23.471Z,10.80
2023-05-05T03:29:26.835Z,10.30
2023-05-05T03:34:29.804Z,10.30
2023-05-05T03:39:32.768Z,11.10
2023-05-05T03:44:35.704Z,11.80
2023-05-05T03:49:38.674Z,11.90
2023-05-05T03:54:42.586Z,10.90
2023-05-05T03:59:45.731Z,11.20
2023-05-05T04:04:48.735Z,10.90
2023-05-05T04:09:51.868Z,10.90
2023-05-05T04:14:54.892Z,10.90
2023-05-05T04:19:57.861Z,9.80
2023-05-05T04:25:01.344Z,10.30
2023-05-05T04:30:05.150Z,9.70
2023-05-05T04:35:08.600Z,8.00
2023-05-05T04:40:12.095Z,11.60
2023-05-05T04:45:15.322Z,9.80
2023-05-05T04:50:18.332Z,11.70
2023-05-05T04:55:21.479Z,12.40
2023-05-05T05:00:24.587Z,13.20
2023-05-05T05:05:27.561Z,10.30
2023-05-05T05:10:30.559Z,11.00
2023-05-05T05:15:33.586Z,11.90
2023-05-05T05:20:36.564Z,9.60
2023-05-05T05:25:39.553Z,10.60
2023-05-05T05:30:42.519Z,10.50
2023-05-05T05:35:45.746Z,9.30
2023-05-05T05:40:48.673Z,11.90
2023-05-05T05:45:52.104Z,12.20
2023-05-05T05:50:56.466Z,13.00
2023-05-05T05:55:59.464Z,13.00
2023-05-05T06:01:04.129Z,13.40
2023-05-05T06:06:07.698Z,13.40
2023-05-05T06:16:13.816Z,11.70
2023-05-05T06:21:16.851Z,12.70
2023-05-05T06:26:19.875Z,11.00
2023-05-05T06:31:22.961Z,11.10
2023-05-05T06:36:26.372Z,10.20
2023-05-05T06:46:32.288Z,9.50
2023-05-05T06:51:35.626Z,9.00
2023-05-05T06:56:38.587Z,9.10
2023-05-05T07:01:41.646Z,8.70
2023-05-05T07:06:44.631Z,10.10
2023-05-05T07:11:47.599Z,8.50
2023-05-05T07:16:50.598Z,6.40
2023-05-05T07:21:53.601Z,7.70
2023-05-05T07:26:58.145Z,6.80
2023-05-05T07:32:01.122Z,6.80
2023-05-05T07:37:05.327Z,5.90
2023-05-05T07:42:08.479Z,6.30
2023-05-05T07:47:11.506Z,5.70
2023-05-05T07:52:14.491Z,5.80
2023-05-05T07:57:17.531Z,5.50
2023-05-05T08:02:23.046Z,5.50
2023-05-05T08:07:26.098Z,4.80
2023-05-05T08:12:32.165Z,4.80
2023-05-05T08:17:49.786Z,4.60
2023-05-05T08:22:52.726Z,4.30
2023-05-05T08:27:55.782Z,7.30
2023-05-05T08:32:59.436Z,4.30
2023-05-05T08:38:02.472Z,4.70
2023-05-05T08:43:06.012Z,3.60
2023-05-05T08:48:10.282Z,3.60
2023-05-05T08:53:17.839Z,15.20
2023-05-05T08:58:26.981Z,21.70
2023-05-05T09:03:32.326Z,6.90
2023-05-05T09:08:37.436Z,7.50
2023-05-05T09:19:05.097Z,4.90
2023-05-05T09:24:13.446Z,4.20
2023-05-05T09:29:21.387Z,4.00
2023-05-05T09:34:24.454Z,3.80
2023-05-05T09:39:27.533Z,4.20
2023-05-05T09:44:36.420Z,3.90
2023-05-05T09:49:39.513Z,4.10
2023-05-05T09:54:43.795Z,4.30
2023-05-05T09:59:58.274Z,4.00
2023-05-05T10:05:18.322Z,3.90
2023-05-05T10:10:21.566Z,4.60
2023-05-05T10:15:24.675Z,3.80
2023-05-05T10:20:27.990Z,4.50
2023-05-05T10:25:38.493Z,6.40
2023-05-05T10:30:46.419Z,5.50
2023-05-05T10:35:53.624Z,4.40
2023-05-05T10:40:59.277Z,4.10
2023-05-05T10:46:02.794Z,10.80
2023-05-05T10:51:31.119Z,8.30
2023-05-05T10:56:43.016Z,14.00
2023-05-05T11:01:46.051Z,7.20
2023-05-05T11:07:14.743Z,17.80
2023-05-05T11:12:18.203Z,4.40
2023-05-05T11:17:47.781Z,4.20
2023-05-05T11:23:02.780Z,4.90
2023-05-05T11:28:25.663Z,4.20
2023-05-05T11:33:33.525Z,3.90
2023-05-05T11:38:36.438Z,3.80
2023-05-05T11:43:41.847Z,3.40
2023-05-05T11:48:46.479Z,4.80
2023-05-05T11:53:50.977Z,8.00
2023-05-05T11:59:11.295Z,3.40
2023-05-05T12:04:16.178Z,4.90
2023-05-05T12:09:21.588Z,3.80
2023-05-05T12:14:26.079Z,3.30
2023-05-05T12:19:33.156Z,4.10
2023-05-05T12:24:36.249Z,3.40
2023-05-05T12:29:39.425Z,3.10
2023-05-05T12:39:45.666Z,3.40
2023-05-05T12:44:49.336Z,4.30
2023-05-05T12:49:52.950Z,4.70
2023-05-05T12:54:57.919Z,3.40
2023-05-05T13:00:13.622Z,3.70
2023-05-05T13:05:28.914Z,5.10
2023-05-05T13:10:31.922Z,4.30
2023-05-05T13:15:35.028Z,6.00
2023-05-05T13:40:49.327Z,6.10
2023-05-05T13:45:53.628Z,3.80
2023-05-05T13:50:56.680Z,4.20
2023-05-05T13:55:59.804Z,4.00
2023-05-05T14:06:07.615Z,4.00
2023-05-05T14:11:10.795Z,3.60
2023-05-05T14:21:17.049Z,4.90
2023-05-05T14:26:20.040Z,4.20
2023-05-05T14:31:23.170Z,4.30
2023-05-05T14:41:29.953Z,4.00
2023-05-05T14:46:33.635Z,4.10
2023-05-05T14:51:36.560Z,4.10
2023-05-05T14:56:39.575Z,4.00
2023-05-05T15:01:42.612Z,4.20
2023-05-05T15:06:45.793Z,4.70
2023-05-05T15:21:55.570Z,6.40
2023-05-05T15:26:58.549Z,7.00
2023-05-05T15:32:01.562Z,4.50
2023-05-05T15:37:04.544Z,8.70
2023-05-05T15:42:07.583Z,6.40
2023-05-05T15:47:11.004Z,5.20
2023-05-05T15:52:14.128Z,3.90
2023-05-05T15:57:21.579Z,6.20
2023-05-05T16:02:25.070Z,3.80
2023-05-05T16:07:28.099Z,4.30
2023-05-05T16:12:31.258Z,4.70
2023-05-05T16:32:43.116Z,4.40
2023-05-05T16:42:52.021Z,3.80
2023-05-05T16:47:57.730Z,4.30
2023-05-05T16:53:00.821Z,4.40
2023-05-05T16:58:04.726Z,4.10
2023-05-05T17:03:07.657Z,4.40
2023-05-05T17:08:14.174Z,4.90
2023-05-05T17:13:17.277Z,4.60
2023-05-05T17:18:22.778Z,3.60
2023-05-05T17:23:25.752Z,4.10
2023-05-05T17:28:28.712Z,4.50
2023-05-05T17:33:31.682Z,4.50
2023-05-05T17:38:34.690Z,3.90
2023-05-05T17:43:37.682Z,3.40
2023-05-05T17:48:40.675Z,3.90
2023-05-05T17:53:43.704Z,4.30
2023-05-05T17:58:46.730Z,4.00
2023-05-05T18:03:50.261Z,3.60
2023-05-05T18:13:56.333Z,4.10
2023-05-05T18:18:59.296Z,4.30
2023-05-05T18:24:15.721Z,4.20
2023-05-05T18:29:22.913Z,4.50
2023-05-05T18:34:26.364Z,4.20
2023-05-05T18:44:35.752Z,4.40
2023-05-05T18:54:41.560Z,4.70
2023-05-05T18:59:44.607Z,4.40
2023-05-05T19:04:47.661Z,4.90
2023-05-05T19:09:50.745Z,5.10
2023-05-05T19:14:53.730Z,4.80
2023-05-05T19:19:56.716Z,5.70
2023-05-05T19:24:59.708Z,5.00
2023-05-05T19:30:07.534Z,5.10
2023-05-05T19:35:11.900Z,5.30
2023-05-05T19:40:15.089Z,6.00
2023-05-05T19:45:18.225Z,5.80
2023-05-05T19:50:21.781Z,5.10
2023-05-05T20:00:27.687Z,5.00
2023-05-05T20:05:30.950Z,4.60
2023-05-05T20:10:34.445Z,6.50
2023-05-05T20:20:40.677Z,4.40
2023-05-05T20:25:43.641Z,4.60
2023-05-05T20:30:46.788Z,5.70
2023-05-05T20:35:49.780Z,12.70
2023-05-05T20:40:52.853Z,11.90
2023-05-05T20:45:55.837Z,9.80
2023-05-05T20:50:58.983Z,10.40
2023-05-05T20:56:02.038Z,6.00
2023-05-05T21:01:05.095Z,8.20
2023-05-05T21:06:08.084Z,6.80
2023-05-05T21:11:11.070Z,6.90
2023-05-05T21:16:14.186Z,8.10
2023-05-05T21:21:17.326Z,5.80
2023-05-05T21:26:21.062Z,4.40
2023-05-05T21:31:24.052Z,4.90
2023-05-05T21:36:27.478Z,4.60
2023-05-05T21:41:30.819Z,5.40
2023-05-05T21:46:33.960Z,5.10
2023-05-05T21:51:37.391Z,7.40
2023-05-05T21:56:40.370Z,8.60
2023-05-05T22:01:43.388Z,6.40
2023-05-05T22:06:46.376Z,9.00
2023-05-05T22:11:49.414Z,11.40
2023-05-05T22:16:52.660Z,22.60
2023-05-05T22:21:57.456Z,12.30
2023-05-05T22:27:00.472Z,9.70
2023-05-05T22:32:03.482Z,13.90
2023-05-05T22:37:06.476Z,16.50
2023-05-05T22:42:09.616Z,16.90
2023-05-05T22:47:13.389Z,8.50
2023-05-05T22:52:16.376Z,5.40
2023-05-05T22:57:19.410Z,5.40
2023-05-05T23:02:22.478Z,6.40
2023-05-05T23:07:25.583Z,5.90
2023-05-05T23:12:28.623Z,5.20
2023-05-05T23:17:31.628Z,5.60
2023-05-05T23:22:34.589Z,4.90
2023-05-05T23:27:40.037Z,5.30
2023-05-05T23:32:44.970Z,4.90
2023-05-05T23:37:48.033Z,4.90
2023-05-05T23:42:51.028Z,4.40
2023-05-05T23:47:54.248Z,6.20
2023-05-05T23:52:57.299Z,6.00
2023-05-05T23:58:00.268Z,4.80
